Time,TemperatureF,DewpointF,PressureIn,WindDirection,WindDirectionDegrees,WindSpeedMPH,WindSpeedGustMPH,Humidity,HourlyPrecipIn,Conditions,Clouds,dailyrainin,SoftwareType,DateUTC
2013-01-29 00:00:00,41.1,39.0,30.05,SSW,210,1.0,6.0,92,0.03,,FEW,0.42,VWS V14.01,2013-01-29 08:00:00,
2013-01-29 00:05:00,41.2,39.1,30.05,SSW,207,1.0,4.0,92,0.03,,FEW,0.00,VWS V14.01,2013-01-29 08:05:00,
2013-01-29 00:10:00,41.2,39.1,30.05,South,191,0.0,5.0,92,0.03,,FEW,0.00,VWS V14.01,2013-01-29 08:10:00,
2013-01-29 00:15:00,41.2,39.1,30.05,South,191,0.0,5.0,92,0.03,,FEW,0.00,VWS V14.01,2013-01-29 08:15:00,
2013-01-29 00:20:00,44.2,42.3,30.05,South,186,2.0,5.0,93,0.03,,FEW,0.00,VWS V14.01,2013-01-29 08:20:00,
2013-01-29 00:25:00,44.9,43.0,30.05,South,189,5.0,7.0,93,0.04,,FEW,0.01,VWS V14.01,2013-01-29 08:25:00,
2013-01-29 00:30:00,45.5,43.6,30.05,SSW,192,5.0,7.0,93,0.04,,FEW,0.01,VWS V14.01,2013-01-29 08:30:00,
2013-01-29 00:35:00,46.0,44.1,30.05,SSW,195,0.0,5.0,93,0.02,,FEW,0.01,VWS V14.01,2013-01-29 08:35:00,
2013-01-29 00:40:00,46.0,44.1,30.05,SSW,195,0.0,5.0,93,0.02,,FEW,0.01,VWS V14.01,2013-01-29 08:40:00,
2013-01-29 00:45:00,46.1,44.2,30.06,SSW,195,2.0,5.0,93,0.02,,FEW,0.01,VWS V14.01,2013-01-29 08:45:00,
2013-01-29 00:50:00,46.2,44.3,30.06,SSW,201,0.0,5.0,93,0.02,,FEW,0.01,VWS V14.01,2013-01-29 08:50:00,
2013-01-29 00:55:00,47.7,45.8,30.06,SSW,192,0.0,5.0,93,0.02,,FEW,0.01,VWS V14.01,2013-01-29 08:55:00,
2013-01-29 01:00:00,48.5,46.6,30.06,ESE,102,0.0,5.0,93,0.02,,FEW,0.01,VWS V14.01,2013-01-29 09:00:00,
2013-01-29 01:05:00,48.8,46.9,30.06,ESE,102,0.0,0.0,93,0.02,,FEW,0.02,VWS V14.01,2013-01-29 09:05:00,
2013-01-29 01:10:00,49.2,47.3,30.06,SSW,197,1.0,5.0,93,0.02,,FEW,0.02,VWS V14.01,2013-01-29 09:10:00,
2013-01-29 01:15:00,49.4,47.5,30.06,South,180,0.0,5.0,93,0.02,,FEW,0.02,VWS V14.01,2013-01-29 09:15:00,
2013-01-29 01:20:00,49.8,47.9,30.06,South,180,0.0,5.0,93,0.02,,FEW,0.02,VWS V14.01,2013-01-29 09:20:00,
2013-01-29 01:25:00,49.9,48.0,30.06,South,183,2.0,5.0,93,0.03,,FEW,0.03,VWS V14.01,2013-01-29 09:25:00,
2013-01-29 01:30:00,49.8,48.2,30.06,SSW,201,0.0,0.0,94,0.02,,FEW,0.03,VWS V14.01,2013-01-29 09:30:00,
2013-01-29 01:35:00,49.8,48.2,30.06,SSW,201,0.0,2.0,94,0.02,,FEW,0.03,VWS V14.01,2013-01-29 09:35:00,
2013-01-29 01:40:00,50.4,48.7,30.06,South,187,0.0,3.0,94,0.02,,FEW,0.03,VWS V14.01,2013-01-29 09:40:00,
2013-01-29 01:45:00,50.5,48.8,30.06,SSE,155,0.0,3.0,94,0.02,,FEW,0.03,VWS V14.01,2013-01-29 09:45:00,
2013-01-29 01:50:00,50.4,48.7,30.06,SE,144,1.0,4.0,94,0.03,,FEW,0.04,VWS V14.01,2013-01-29 09:50:00,
2013-01-29 01:55:00,50.5,48.8,30.06,SE,131,5.0,5.0,94,0.03,,FEW,0.04,VWS V14.01,2013-01-29 09:55:00,
2013-01-29 02:00:00,50.7,49.0,30.07,South,184,1.0,2.0,94,0.03,,FEW,0.04,VWS V14.01,2013-01-29 10:00:00,
2013-01-29 02:05:00,50.7,49.0,30.07,South,184,0.0,2.0,94,0.04,,FEW,0.05,VWS V14.01,2013-01-29 10:05:00,
2013-01-29 02:10:00,51.0,49.3,30.07,South,184,0.0,2.0,94,0.04,,FEW,0.05,VWS V14.01,2013-01-29 10:10:00,
2013-01-29 02:16:00,47.6,46.0,30.08,SSW,199,0.0,4.0,94,0.04,,FEW,0.05,VWS V14.01,2013-01-29 10:16:00,
2013-01-29 02:21:00,46.8,45.2,30.08,South,187,0.0,4.0,94,0.04,,FEW,0.05,VWS V14.01,2013-01-29 10:21:00,
2013-01-29 02:26:00,46.8,45.2,30.08,South,186,0.0,4.0,94,0.04,,FEW,0.05,VWS V14.01,2013-01-29 10:26:00,
2013-01-29 02:31:00,48.3,46.7,30.08,South,186,1.0,2.0,94,0.03,,FEW,0.06,VWS V14.01,2013-01-29 10:31:00,
2013-01-29 02:36:00,48.0,46.4,30.08,South,190,1.0,4.0,94,0.03,,FEW,0.06,VWS V14.01,2013-01-29 10:36:00,
2013-01-29 02:41:00,48.3,46.9,30.08,South,190,1.0,4.0,95,0.03,,FEW,0.06,VWS V14.01,2013-01-29 10:41:00,
2013-01-29 02:46:00,48.8,47.2,30.08,South,189,1.0,4.0,94,0.03,,FEW,0.06,VWS V14.01,2013-01-29 10:46:00,
2013-01-29 02:51:00,48.8,47.2,30.08,SSW,199,0.0,4.0,94,0.04,,FEW,0.07,VWS V14.01,2013-01-29 10:51:00,
2013-01-29 02:56:00,48.9,47.2,30.08,SSW,199,0.0,4.0,94,0.04,,FEW,0.07,VWS V14.01,2013-01-29 10:56:00,
2013-01-29 03:01:00,49.1,47.7,30.08,South,191,2.0,3.0,95,0.03,,FEW,0.07,VWS V14.01,2013-01-29 11:01:00,
2013-01-29 03:06:00,49.4,48.0,30.08,South,187,0.0,4.0,95,0.03,,FEW,0.07,VWS V14.01,2013-01-29 11:06:00,
2013-01-29 03:11:00,49.6,48.2,30.08,SSE,168,2.0,4.0,95,0.03,,FEW,0.07,VWS V14.01,2013-01-29 11:11:00,
2013-01-29 03:16:00,49.6,48.2,30.08,SSE,161,0.0,4.0,95,0.04,,FEW,0.08,VWS V14.01,2013-01-29 11:16:00,
2013-01-29 03:21:00,49.4,48.0,30.08,South,173,0.0,4.0,95,0.04,,FEW,0.08,VWS V14.01,2013-01-29 11:21:00,
2013-01-29 03:26:00,49.5,48.1,30.08,South,171,1.0,4.0,95,0.04,,FEW,0.08,VWS V14.01,2013-01-29 11:26:00,
2013-01-29 03:31:00,49.2,47.8,30.08,South,189,0.0,2.0,95,0.02,,FEW,0.08,VWS V14.01,2013-01-29 11:31:00,
2013-01-29 03:36:00,49.4,48.0,30.08,South,189,0.0,2.0,95,0.02,,FEW,0.08,VWS V14.01,2013-01-29 11:36:00,
2013-01-29 03:41:00,49.2,47.8,30.08,South,189,0.0,2.0,95,0.03,,FEW,0.09,VWS V14.01,2013-01-29 11:41:00,
2013-01-29 03:46:00,49.4,48.0,30.09,South,187,0.0,2.0,95,0.03,,FEW,0.09,VWS V14.01,2013-01-29 11:46:00,
2013-01-29 03:51:00,48.6,47.2,30.09,SE,137,3.0,3.0,95,0.03,,FEW,0.09,VWS V14.01,2013-01-29 11:51:00,
2013-01-29 03:56:00,47.9,46.5,30.09,South,180,1.0,4.0,95,0.04,,FEW,0.10,VWS V14.01,2013-01-29 11:56:00,
2013-01-29 04:01:00,48.0,46.6,30.09,SE,127,4.0,4.0,95,0.03,,FEW,0.10,VWS V14.01,2013-01-29 12:01:00,
2013-01-29 04:06:00,48.2,46.8,30.09,SSW,205,2.0,4.0,95,0.03,,FEW,0.10,VWS V14.01,2013-01-29 12:06:00,
2013-01-29 04:11:00,48.0,46.6,30.09,SSW,192,2.0,4.0,95,0.04,,FEW,0.11,VWS V14.01,2013-01-29 12:11:00,
2013-01-29 04:16:00,47.7,46.3,30.10,SE,139,0.0,4.0,95,0.04,,FEW,0.11,VWS V14.01,2013-01-29 12:16:00,
2013-01-29 04:21:00,47.7,46.3,30.10,SE,139,0.0,4.0,95,0.04,,FEW,0.11,VWS V14.01,2013-01-29 12:21:00,
2013-01-29 04:26:00,47.3,45.9,30.10,SE,139,0.0,4.0,95,0.04,,FEW,0.11,VWS V14.01,2013-01-29 12:26:00,
2013-01-29 04:32:00,46.4,45.0,30.10,SE,139,0.0,0.0,95,0.04,,FEW,0.12,VWS V14.01,2013-01-29 12:32:00,
2013-01-29 04:37:00,46.4,45.0,30.10,SE,143,0.0,2.0,95,0.04,,FEW,0.12,VWS V14.01,2013-01-29 12:37:00,
2013-01-29 04:42:00,46.2,44.8,30.10,SE,143,0.0,2.0,95,0.04,,FEW,0.12,VWS V14.01,2013-01-29 12:42:00,
2013-01-29 04:47:00,46.4,45.0,30.10,SSW,195,1.0,2.0,95,0.04,,FEW,0.12,VWS V14.01,2013-01-29 12:47:00,
2013-01-29 04:52:00,46.2,44.8,30.10,South,189,1.0,3.0,95,0.04,,FEW,0.12,VWS V14.01,2013-01-29 12:52:00,
2013-01-29 04:57:00,46.4,45.0,30.10,South,189,0.0,3.0,95,0.05,,FEW,0.13,VWS V14.01,2013-01-29 12:57:00,
2013-01-29 05:02:00,46.7,45.3,30.11,South,189,1.0,1.0,95,0.03,,FEW,0.13,VWS V14.01,2013-01-29 13:02:00,
2013-01-29 05:07:00,46.8,45.5,30.11,SE,137,0.0,2.0,95,0.03,,FEW,0.13,VWS V14.01,2013-01-29 13:07:00,
2013-01-29 05:12:00,46.8,45.5,30.11,SE,137,0.0,2.0,95,0.03,,FEW,0.13,VWS V14.01,2013-01-29 13:12:00,
2013-01-29 05:17:00,47.0,45.7,30.11,SE,137,0.0,2.0,95,0.03,,FEW,0.13,VWS V14.01,2013-01-29 13:17:00,
2013-01-29 05:22:00,47.1,45.7,30.11,SE,137,0.0,2.0,95,0.03,,FEW,0.13,VWS V14.01,2013-01-29 13:22:00,
2013-01-29 05:27:00,47.0,45.9,30.11,SSW,209,0.0,2.0,96,0.03,,FEW,0.13,VWS V14.01,2013-01-29 13:27:00,
2013-01-29 05:32:00,47.1,45.7,30.11,SSW,209,0.0,2.0,95,0.01,,FEW,0.13,VWS V14.01,2013-01-29 13:32:00,
2013-01-29 05:37:00,47.1,45.7,30.11,SSW,205,1.0,3.0,95,0.01,,FEW,0.13,VWS V14.01,2013-01-29 13:37:00,
2013-01-29 05:42:00,47.3,45.9,30.11,SSW,205,0.0,3.0,95,0.01,,FEW,0.13,VWS V14.01,2013-01-29 13:42:00,
2013-01-29 05:47:00,47.3,45.9,30.11,SSW,205,0.0,3.0,95,0.01,,FEW,0.13,VWS V14.01,2013-01-29 13:47:00,
2013-01-29 05:52:00,47.3,45.9,30.11,South,176,1.0,3.0,95,0.01,,FEW,0.13,VWS V14.01,2013-01-29 13:52:00,
2013-01-29 05:57:00,47.4,46.0,30.11,South,176,0.0,3.0,95,0.01,,FEW,0.13,VWS V14.01,2013-01-29 13:57:00,
2013-01-29 06:02:00,47.6,46.2,30.12,South,182,0.0,3.0,95,0.00,,FEW,0.13,VWS V14.01,2013-01-29 14:02:00,
2013-01-29 06:07:00,47.6,46.2,30.12,South,182,1.0,3.0,95,0.01,,FEW,0.14,VWS V14.01,2013-01-29 14:07:00,
2013-01-29 06:12:00,47.7,46.3,30.12,South,181,0.0,3.0,95,0.01,,FEW,0.14,VWS V14.01,2013-01-29 14:12:00,
2013-01-29 06:17:00,47.9,46.5,30.12,South,185,0.0,3.0,95,0.01,,FEW,0.14,VWS V14.01,2013-01-29 14:17:00,
2013-01-29 06:22:00,47.7,46.3,30.12,South,185,0.0,3.0,95,0.01,,FEW,0.14,VWS V14.01,2013-01-29 14:22:00,
2013-01-29 06:27:00,47.7,46.3,30.12,South,185,0.0,3.0,95,0.01,,FEW,0.14,VWS V14.01,2013-01-29 14:27:00,
2013-01-29 06:32:00,47.7,46.3,30.13,South,185,0.0,0.0,95,0.01,,FEW,0.14,VWS V14.01,2013-01-29 14:32:00,
2013-01-29 06:37:00,47.9,46.5,30.13,South,185,0.0,0.0,95,0.01,,FEW,0.14,VWS V14.01,2013-01-29 14:37:00,
2013-01-29 06:42:00,47.9,46.5,30.13,South,185,0.0,0.0,95,0.01,,FEW,0.14,VWS V14.01,2013-01-29 14:42:00,
2013-01-29 06:48:00,47.9,46.5,30.14,ESE,119,0.0,3.0,95,0.01,,FEW,0.14,VWS V14.01,2013-01-29 14:48:00,
2013-01-29 06:53:00,47.9,46.5,30.14,ESE,119,0.0,3.0,95,0.01,,FEW,0.14,VWS V14.01,2013-01-29 14:53:00,
2013-01-29 06:58:00,47.9,46.5,30.14,ESE,119,0.0,3.0,95,0.01,,FEW,0.14,VWS V14.01,2013-01-29 14:58:00,
2013-01-29 07:03:00,47.9,46.5,30.14,ESE,119,0.0,0.0,95,0.02,,FEW,0.15,VWS V14.01,2013-01-29 15:03:00,
2013-01-29 07:08:00,47.9,46.5,30.14,ESE,119,0.0,0.0,95,0.02,,FEW,0.15,VWS V14.01,2013-01-29 15:08:00,
2013-01-29 07:13:00,47.9,46.5,30.14,ESE,119,0.0,0.0,95,0.02,,FEW,0.15,VWS V14.01,2013-01-29 15:13:00,
2013-01-29 07:18:00,47.9,46.5,30.15,ESE,119,0.0,0.0,95,0.02,,FEW,0.15,VWS V14.01,2013-01-29 15:18:00,
2013-01-29 07:23:00,47.9,46.5,30.15,ESE,119,0.0,0.0,95,0.02,,FEW,0.15,VWS V14.01,2013-01-29 15:23:00,
2013-01-29 07:28:00,47.9,46.8,30.15,ESE,119,0.0,0.0,96,0.02,,FEW,0.15,VWS V14.01,2013-01-29 15:28:00,
2013-01-29 07:33:00,47.9,46.8,30.15,ESE,119,0.0,0.0,96,0.01,,FEW,0.15,VWS V14.01,2013-01-29 15:33:00,
2013-01-29 07:38:00,47.9,46.8,30.15,ESE,119,0.0,0.0,96,0.01,,FEW,0.15,VWS V14.01,2013-01-29 15:38:00,
2013-01-29 07:43:00,47.9,46.8,30.15,ESE,119,0.0,0.0,96,0.01,,FEW,0.15,VWS V14.01,2013-01-29 15:43:00,
2013-01-29 07:48:00,47.9,46.8,30.16,ESE,119,0.0,0.0,96,0.01,,FEW,0.15,VWS V14.01,2013-01-29 15:48:00,
2013-01-29 07:53:00,47.9,46.8,30.16,ESE,119,0.0,0.0,96,0.01,,FEW,0.15,VWS V14.01,2013-01-29 15:53:00,
2013-01-29 07:58:00,47.9,46.8,30.16,ESE,119,0.0,0.0,96,0.01,,FEW,0.15,VWS V14.01,2013-01-29 15:58:00,
2013-01-29 08:03:00,47.9,46.8,30.16,ESE,119,0.0,0.0,96,0.01,,FEW,0.15,VWS V14.01,2013-01-29 16:03:00,
2013-01-29 08:08:00,47.9,46.8,30.16,ESE,119,0.0,0.0,96,0.01,,FEW,0.15,VWS V14.01,2013-01-29 16:08:00,
2013-01-29 08:13:00,48.0,46.9,30.16,ESE,119,0.0,0.0,96,0.01,,FEW,0.15,VWS V14.01,2013-01-29 16:13:00,
2013-01-29 08:18:00,48.0,46.9,30.17,ESE,119,0.0,0.0,96,0.01,,FEW,0.15,VWS V14.01,2013-01-29 16:18:00,
2013-01-29 08:23:00,48.2,47.1,30.17,ESE,119,0.0,0.0,96,0.01,,FEW,0.15,VWS V14.01,2013-01-29 16:23:00,
2013-01-29 08:28:00,48.3,47.2,30.17,NE,41,0.0,0.0,96,0.01,,FEW,0.15,VWS V14.01,2013-01-29 16:28:00,
2013-01-29 08:33:00,48.3,47.2,30.18,NE,41,0.0,0.0,96,0.00,,FEW,0.15,VWS V14.01,2013-01-29 16:33:00,
2013-01-29 08:38:00,48.3,47.2,30.18,NE,41,0.0,0.0,96,0.01,,FEW,0.16,VWS V14.01,2013-01-29 16:38:00,
2013-01-29 08:43:00,48.3,47.2,30.18,NE,41,0.0,0.0,96,0.01,,FEW,0.16,VWS V14.01,2013-01-29 16:43:00,
2013-01-29 08:48:00,48.3,47.2,30.19,NE,41,0.0,0.0,96,0.01,,FEW,0.16,VWS V14.01,2013-01-29 16:48:00,
2013-01-29 08:53:00,48.3,47.2,30.19,NE,41,0.0,0.0,96,0.01,,FEW,0.16,VWS V14.01,2013-01-29 16:53:00,
2013-01-29 08:58:00,48.5,47.4,30.19,NE,41,0.0,0.0,96,0.01,,FEW,0.16,VWS V14.01,2013-01-29 16:58:00,
2013-01-29 09:03:00,48.6,47.5,30.19,NE,41,0.0,0.0,96,0.01,,FEW,0.16,VWS V14.01,2013-01-29 17:03:00,
2013-01-29 09:08:00,48.6,47.5,30.19,South,182,0.0,2.0,96,0.01,,FEW,0.16,VWS V14.01,2013-01-29 17:08:00,
2013-01-29 09:13:00,48.6,47.5,30.19,SE,128,0.0,2.0,96,0.01,,FEW,0.16,VWS V14.01,2013-01-29 17:13:00,
2013-01-29 09:18:00,48.6,47.5,30.20,South,175,1.0,2.0,96,0.01,,FEW,0.16,VWS V14.01,2013-01-29 17:18:00,
2013-01-29 09:23:00,48.8,47.7,30.20,South,175,0.0,2.0,96,0.01,,FEW,0.16,VWS V14.01,2013-01-29 17:23:00,
2013-01-29 09:28:00,48.9,47.8,30.20,SSW,210,0.0,3.0,96,0.01,,FEW,0.16,VWS V14.01,2013-01-29 17:28:00,
2013-01-29 09:33:00,48.9,47.8,30.20,SSW,210,2.0,2.0,96,0.01,,FEW,0.16,VWS V14.01,2013-01-29 17:33:00,
2013-01-29 09:38:00,49.1,48.0,30.20,SSW,197,1.0,5.0,96,0.01,,FEW,0.16,VWS V14.01,2013-01-29 17:38:00,
2013-01-29 09:43:00,49.2,48.1,30.20,South,172,2.0,5.0,96,0.01,,FEW,0.16,VWS V14.01,2013-01-29 17:43:00,
2013-01-29 09:48:00,49.4,48.3,30.20,SSW,193,0.0,5.0,96,0.01,,FEW,0.16,VWS V14.01,2013-01-29 17:48:00,
2013-01-29 09:53:00,49.4,48.3,30.20,SSW,195,2.0,5.0,96,0.01,,FEW,0.16,VWS V14.01,2013-01-29 17:53:00,
2013-01-29 09:58:00,49.5,48.4,30.20,SSW,194,3.0,5.0,96,0.01,,FEW,0.16,VWS V14.01,2013-01-29 17:58:00,
2013-01-29 10:04:00,49.6,48.2,30.21,SSW,199,3.0,4.0,95,0.00,,FEW,0.16,VWS V14.01,2013-01-29 18:04:00,
2013-01-29 10:09:00,49.6,48.2,30.21,SSW,199,0.0,4.0,95,0.00,,FEW,0.16,VWS V14.01,2013-01-29 18:09:00,
2013-01-29 10:14:00,49.5,48.1,30.21,SSE,160,0.0,4.0,95,0.00,,FEW,0.16,VWS V14.01,2013-01-29 18:14:00,
2013-01-29 10:19:00,49.5,48.1,30.22,South,190,4.0,6.0,95,0.00,,FEW,0.16,VWS V14.01,2013-01-29 18:19:00,
2013-01-29 10:24:00,49.6,48.2,30.22,South,190,0.0,6.0,95,0.00,,FEW,0.16,VWS V14.01,2013-01-29 18:24:00,
2013-01-29 10:29:00,49.8,48.4,30.22,South,189,2.0,6.0,95,0.00,,FEW,0.16,VWS V14.01,2013-01-29 18:29:00,
2013-01-29 10:34:00,49.8,48.2,30.22,South,176,0.0,3.0,94,0.00,,FEW,0.16,VWS V14.01,2013-01-29 18:34:00,
2013-01-29 10:39:00,49.8,48.2,30.22,SSW,195,2.0,3.0,94,0.00,,FEW,0.16,VWS V14.01,2013-01-29 18:39:00,
2013-01-29 10:44:00,49.9,48.2,30.22,South,184,2.0,4.0,94,0.00,,FEW,0.16,VWS V14.01,2013-01-29 18:44:00,
2013-01-29 10:49:00,49.9,48.0,30.23,SSW,213,4.0,5.0,93,0.00,,FEW,0.16,VWS V14.01,2013-01-29 18:49:00,
2013-01-29 10:54:00,49.9,48.0,30.23,South,180,3.0,5.0,93,0.00,,FEW,0.16,VWS V14.01,2013-01-29 18:54:00,
2013-01-29 10:59:00,50.1,48.2,30.25,South,180,4.0,5.0,93,0.00,,FEW,0.16,VWS V14.01,2013-01-29 18:59:00,
2013-01-29 11:04:00,50.2,48.3,30.25,South,191,3.0,5.0,93,0.00,,FEW,0.16,VWS V14.01,2013-01-29 19:04:00,
2013-01-29 11:09:00,50.1,48.2,30.25,South,191,3.0,5.0,93,0.00,,FEW,0.16,VWS V14.01,2013-01-29 19:09:00,
2013-01-29 11:14:00,50.1,47.9,30.25,South,190,5.0,6.0,92,0.00,,FEW,0.16,VWS V14.01,2013-01-29 19:14:00,
2013-01-29 11:19:00,50.1,48.2,30.25,SSW,195,6.0,6.0,93,0.00,,FEW,0.16,VWS V14.01,2013-01-29 19:19:00,
2013-01-29 11:24:00,49.9,48.0,30.25,South,178,4.0,7.0,93,0.00,,FEW,0.16,VWS V14.01,2013-01-29 19:24:00,
2013-01-29 11:29:00,49.9,48.0,30.25,SSW,193,2.0,7.0,93,0.00,,FEW,0.16,VWS V14.01,2013-01-29 19:29:00,
2013-01-29 11:35:00,49.8,47.9,30.25,SSW,193,4.0,6.0,93,0.00,,FEW,0.16,VWS V14.01,2013-01-29 19:35:00,
2013-01-29 11:40:00,49.9,48.2,30.25,South,191,2.0,6.0,94,0.00,,FEW,0.16,VWS V14.01,2013-01-29 19:40:00,
2013-01-29 11:45:00,49.9,48.2,30.25,South,191,2.0,6.0,94,0.00,,FEW,0.16,VWS V14.01,2013-01-29 19:45:00,
2013-01-29 11:50:00,49.9,48.0,30.25,South,191,5.0,6.0,93,0.00,,FEW,0.16,VWS V14.01,2013-01-29 19:50:00,
2013-01-29 11:55:00,49.9,48.0,30.25,SSW,204,4.0,6.0,93,0.00,,FEW,0.16,VWS V14.01,2013-01-29 19:55:00,
2013-01-29 11:57:00,49.9,48.0,30.25,SSW,195,2.0,6.0,93,0.00,,FEW,0.16,VWS V14.01,2013-01-29 19:57:00,
2013-01-29 12:02:00,50.1,48.2,30.25,South,188,3.0,5.0,93,0.00,,FEW,0.16,VWS V14.01,2013-01-29 20:02:00,
2013-01-29 12:07:00,50.1,48.2,30.25,South,190,7.0,7.0,93,0.00,,FEW,0.16,VWS V14.01,2013-01-29 20:07:00,
2013-01-29 12:12:00,50.1,48.2,30.25,South,190,6.0,9.0,93,0.00,,FEW,0.16,VWS V14.01,2013-01-29 20:12:00,
2013-01-29 12:17:00,50.1,48.4,30.25,SSW,196,4.0,9.0,94,0.00,,FEW,0.16,VWS V14.01,2013-01-29 20:17:00,
2013-01-29 12:22:00,50.2,48.5,30.25,South,189,5.0,9.0,94,0.00,,FEW,0.16,VWS V14.01,2013-01-29 20:22:00,
2013-01-29 12:27:00,49.9,48.2,30.25,South,180,5.0,9.0,94,0.00,,FEW,0.16,VWS V14.01,2013-01-29 20:27:00,
2013-01-29 12:32:00,49.9,48.2,30.25,South,185,5.0,6.0,94,0.00,,FEW,0.16,VWS V14.01,2013-01-29 20:32:00,
2013-01-29 12:37:00,49.9,48.2,30.25,South,191,6.0,7.0,94,0.00,,FEW,0.16,VWS V14.01,2013-01-29 20:37:00,
2013-01-29 12:42:00,50.1,48.4,30.25,SSW,201,7.0,7.0,94,0.00,,FEW,0.16,VWS V14.01,2013-01-29 20:42:00,
2013-01-29 12:47:00,50.1,48.7,30.26,South,171,4.0,9.0,95,0.00,,FEW,0.16,VWS V14.01,2013-01-29 20:47:00,
2013-01-29 12:52:00,50.1,48.7,30.26,South,191,3.0,9.0,95,0.00,,FEW,0.16,VWS V14.01,2013-01-29 20:52:00,
2013-01-29 12:57:00,50.1,48.7,30.26,South,191,3.0,9.0,95,0.00,,FEW,0.16,VWS V14.01,2013-01-29 20:57:00,
2013-01-29 13:02:00,50.1,48.7,30.25,SSW,195,4.0,6.0,95,0.00,,FEW,0.16,VWS V14.01,2013-01-29 21:02:00,
2013-01-29 13:07:00,50.2,48.8,30.25,SSW,197,4.0,6.0,95,0.00,,FEW,0.16,VWS V14.01,2013-01-29 21:07:00,
2013-01-29 13:12:00,50.2,48.8,30.25,South,190,4.0,6.0,95,0.00,,FEW,0.16,VWS V14.01,2013-01-29 21:12:00,
2013-01-29 13:17:00,50.1,48.7,30.25,South,190,4.0,6.0,95,0.00,,FEW,0.16,VWS V14.01,2013-01-29 21:17:00,
2013-01-29 13:22:00,50.2,48.8,30.25,SSW,195,4.0,6.0,95,0.00,,FEW,0.16,VWS V14.01,2013-01-29 21:22:00,
2013-01-29 13:27:00,50.2,48.8,30.25,SSW,193,4.0,6.0,95,0.00,,FEW,0.16,VWS V14.01,2013-01-29 21:27:00,
2013-01-29 13:32:00,50.2,48.8,30.26,SSW,205,0.0,5.0,95,0.00,,FEW,0.16,VWS V14.01,2013-01-29 21:32:00,
2013-01-29 13:38:00,50.2,48.8,30.26,SSW,193,3.0,7.0,95,0.00,,FEW,0.16,VWS V14.01,2013-01-29 21:38:00,
2013-01-29 13:43:00,50.4,49.0,30.26,South,172,2.0,8.0,95,0.00,,FEW,0.16,VWS V14.01,2013-01-29 21:43:00,
2013-01-29 13:48:00,50.4,49.0,30.26,South,169,3.0,8.0,95,0.00,,FEW,0.16,VWS V14.01,2013-01-29 21:48:00,
2013-01-29 13:53:00,50.4,49.0,30.26,SSW,199,2.0,8.0,95,0.00,,FEW,0.16,VWS V14.01,2013-01-29 21:53:00,
2013-01-29 13:58:00,50.7,49.3,30.26,SSE,149,3.0,8.0,95,0.00,,FEW,0.16,VWS V14.01,2013-01-29 21:58:00,
2013-01-29 14:03:00,50.7,49.3,30.26,SSW,212,4.0,8.0,95,0.00,,FEW,0.16,VWS V14.01,2013-01-29 22:03:00,
2013-01-29 14:08:00,50.5,49.1,30.26,South,188,4.0,10.0,95,0.00,,FEW,0.16,VWS V14.01,2013-01-29 22:08:00,
2013-01-29 14:13:00,50.5,49.1,30.26,SSW,201,4.0,10.0,95,0.00,,FEW,0.16,VWS V14.01,2013-01-29 22:13:00,
2013-01-29 14:18:00,50.5,49.1,30.26,South,191,6.0,10.0,95,0.00,,FEW,0.16,VWS V14.01,2013-01-29 22:18:00,
2013-01-29 14:23:00,50.5,49.1,30.26,SE,132,4.0,10.0,95,0.00,,FEW,0.16,VWS V14.01,2013-01-29 22:23:00,
2013-01-29 14:28:00,50.5,49.1,30.26,South,185,4.0,10.0,95,0.00,,FEW,0.16,VWS V14.01,2013-01-29 22:28:00,
2013-01-29 14:33:00,50.5,49.1,30.26,South,191,4.0,5.0,95,0.00,,FEW,0.16,VWS V14.01,2013-01-29 22:33:00,
2013-01-29 14:38:00,50.7,49.3,30.26,South,185,3.0,5.0,95,0.00,,FEW,0.16,VWS V14.01,2013-01-29 22:38:00,
2013-01-29 14:43:00,50.8,49.4,30.26,South,187,2.0,5.0,95,0.00,,FEW,0.16,VWS V14.01,2013-01-29 22:43:00,
2013-01-29 14:48:00,50.7,49.3,30.26,SW,214,1.0,5.0,95,0.00,,FEW,0.16,VWS V14.01,2013-01-29 22:48:00,
2013-01-29 14:53:00,50.7,49.3,30.26,SSW,198,4.0,5.0,95,0.00,,FEW,0.16,VWS V14.01,2013-01-29 22:53:00,
2013-01-29 14:58:00,50.7,49.3,30.26,SSW,207,4.0,5.0,95,0.00,,FEW,0.16,VWS V14.01,2013-01-29 22:58:00,
2013-01-29 15:03:00,50.7,49.6,30.27,SSW,205,3.0,4.0,96,0.00,,FEW,0.16,VWS V14.01,2013-01-29 23:03:00,
2013-01-29 15:08:00,50.7,49.6,30.27,South,187,4.0,6.0,96,0.00,,FEW,0.16,VWS V14.01,2013-01-29 23:08:00,
2013-01-29 15:13:00,50.7,49.6,30.27,SSW,199,3.0,6.0,96,0.01,,FEW,0.17,VWS V14.01,2013-01-29 23:13:00,
2013-01-29 15:18:00,50.7,49.6,30.27,South,185,2.0,6.0,96,0.01,,FEW,0.17,VWS V14.01,2013-01-29 23:18:00,
2013-01-29 15:23:00,50.7,49.6,30.27,SSW,201,0.0,6.0,96,0.01,,FEW,0.17,VWS V14.01,2013-01-29 23:23:00,
2013-01-29 15:28:00,50.8,49.7,30.27,SSW,199,3.0,6.0,96,0.01,,FEW,0.17,VWS V14.01,2013-01-29 23:28:00,
2013-01-29 15:33:00,50.5,49.4,30.26,South,170,5.0,5.0,96,0.01,,FEW,0.17,VWS V14.01,2013-01-29 23:33:00,
2013-01-29 15:38:00,50.2,49.1,30.26,SSW,208,2.0,6.0,96,0.01,,FEW,0.17,VWS V14.01,2013-01-29 23:38:00,
2013-01-29 15:43:00,50.2,49.1,30.26,SSW,195,2.0,6.0,96,0.01,,FEW,0.17,VWS V14.01,2013-01-29 23:43:00,
2013-01-29 15:48:00,50.2,49.1,30.27,SSW,195,0.0,6.0,96,0.01,,FEW,0.17,VWS V14.01,2013-01-29 23:48:00,
2013-01-29 15:53:00,50.2,49.1,30.27,SSW,195,0.0,6.0,96,0.01,,FEW,0.17,VWS V14.01,2013-01-29 23:53:00,
2013-01-29 15:58:00,50.2,49.1,30.27,SSW,195,0.0,6.0,96,0.01,,FEW,0.17,VWS V14.01,2013-01-29 23:58:00,
2013-01-29 16:03:00,49.6,48.5,30.28,South,182,0.0,2.0,96,0.02,,FEW,0.18,VWS V14.01,2013-01-30 00:03:00,
2013-01-29 16:08:00,49.8,48.7,30.28,South,182,0.0,2.0,96,0.02,,FEW,0.18,VWS V14.01,2013-01-30 00:08:00,
2013-01-29 16:13:00,49.6,48.5,30.28,South,182,0.0,2.0,96,0.02,,FEW,0.18,VWS V14.01,2013-01-30 00:13:00,
2013-01-29 16:18:00,49.5,48.4,30.28,South,182,0.0,2.0,96,0.02,,FEW,0.18,VWS V14.01,2013-01-30 00:18:00,
2013-01-29 16:23:00,49.5,48.4,30.28,SSW,196,2.0,3.0,96,0.02,,FEW,0.18,VWS V14.01,2013-01-30 00:23:00,
2013-01-29 16:28:00,49.6,48.5,30.28,SSW,196,0.0,3.0,96,0.02,,FEW,0.18,VWS V14.01,2013-01-30 00:28:00,
2013-01-29 16:33:00,49.6,48.5,30.29,SSW,196,0.0,1.0,96,0.01,,FEW,0.18,VWS V14.01,2013-01-30 00:33:00,
2013-01-29 16:38:00,49.5,48.4,30.29,SSW,196,0.0,3.0,96,0.01,,FEW,0.18,VWS V14.01,2013-01-30 00:38:00,
2013-01-29 16:43:00,49.5,48.4,30.29,SSW,196,2.0,3.0,96,0.01,,FEW,0.18,VWS V14.01,2013-01-30 00:43:00,
2013-01-29 16:49:00,49.5,48.4,30.29,WSW,249,0.0,5.0,96,0.01,,FEW,0.18,VWS V14.01,2013-01-30 00:49:00,
2013-01-29 16:54:00,49.6,48.5,30.29,SSW,202,3.0,5.0,96,0.01,,FEW,0.18,VWS V14.01,2013-01-30 00:54:00,
2013-01-29 16:59:00,49.5,48.4,30.29,SE,136,2.0,5.0,96,0.01,,FEW,0.18,VWS V14.01,2013-01-30 00:59:00,
2013-01-29 17:04:00,49.6,48.2,30.29,SSW,195,1.0,6.0,95,0.00,,FEW,0.18,VWS V14.01,2013-01-30 01:04:00,
2013-01-29 17:09:00,49.6,48.2,30.29,SE,137,0.0,6.0,95,0.00,,FEW,0.18,VWS V14.01,2013-01-30 01:09:00,
2013-01-29 17:14:00,49.6,48.2,30.29,SE,138,0.0,6.0,95,0.00,,FEW,0.18,VWS V14.01,2013-01-30 01:14:00,
2013-01-29 17:19:00,49.6,48.2,30.29,SSW,197,3.0,6.0,95,0.00,,FEW,0.18,VWS V14.01,2013-01-30 01:19:00,
2013-01-29 17:24:00,49.6,48.0,30.29,SSW,212,0.0,6.0,94,0.00,,FEW,0.18,VWS V14.01,2013-01-30 01:24:00,
2013-01-29 17:29:00,49.6,48.0,30.29,South,184,1.0,6.0,94,0.00,,FEW,0.18,VWS V14.01,2013-01-30 01:29:00,
2013-01-29 17:34:00,49.8,47.9,30.30,SSW,195,3.0,3.0,93,0.00,,FEW,0.18,VWS V14.01,2013-01-30 01:34:00,
2013-01-29 17:39:00,49.8,47.9,30.30,SSW,207,1.0,4.0,93,0.00,,FEW,0.18,VWS V14.01,2013-01-30 01:39:00,
2013-01-29 17:44:00,49.6,47.7,30.30,SW,223,1.0,4.0,93,0.00,,FEW,0.18,VWS V14.01,2013-01-30 01:44:00,
2013-01-29 17:49:00,49.8,47.6,30.30,South,191,0.0,4.0,92,0.00,,FEW,0.18,VWS V14.01,2013-01-30 01:49:00,
2013-01-29 17:54:00,49.8,47.6,30.30,South,174,0.0,4.0,92,0.00,,FEW,0.18,VWS V14.01,2013-01-30 01:54:00,
2013-01-29 17:59:00,49.8,47.6,30.29,South,174,2.0,4.0,92,0.00,,FEW,0.18,VWS V14.01,2013-01-30 01:59:00,
2013-01-29 18:04:00,49.8,47.6,30.29,SSW,210,2.0,2.0,92,0.00,,FEW,0.18,VWS V14.01,2013-01-30 02:04:00,
2013-01-29 18:09:00,49.6,47.4,30.29,SSW,195,0.0,4.0,92,0.00,,FEW,0.18,VWS V14.01,2013-01-30 02:09:00,
2013-01-29 18:14:00,49.6,47.4,30.29,South,184,2.0,4.0,92,0.00,,FEW,0.18,VWS V14.01,2013-01-30 02:14:00,
2013-01-29 18:19:00,49.6,47.4,30.29,SSE,163,1.0,4.0,92,0.00,,FEW,0.18,VWS V14.01,2013-01-30 02:19:00,
2013-01-29 18:24:00,49.6,47.4,30.29,SSW,194,3.0,4.0,92,0.00,,FEW,0.18,VWS V14.01,2013-01-30 02:24:00,
2013-01-29 18:29:00,49.6,47.4,30.29,SSW,194,0.0,4.0,92,0.00,,FEW,0.18,VWS V14.01,2013-01-30 02:29:00,
2013-01-29 18:34:00,49.6,47.4,30.29,SW,216,1.0,2.0,92,0.00,,FEW,0.18,VWS V14.01,2013-01-30 02:34:00,
2013-01-29 18:39:00,49.8,47.6,30.29,SSW,197,2.0,4.0,92,0.00,,FEW,0.18,VWS V14.01,2013-01-30 02:39:00,
2013-01-29 18:44:00,49.6,47.4,30.30,SSW,197,2.0,4.0,92,0.00,,FEW,0.18,VWS V14.01,2013-01-30 02:44:00,
2013-01-29 18:49:00,49.5,47.3,30.30,SSW,197,1.0,4.0,92,0.00,,FEW,0.18,VWS V14.01,2013-01-30 02:49:00,
2013-01-29 18:54:00,49.4,47.5,30.30,SSW,204,2.0,4.0,93,0.00,,FEW,0.18,VWS V14.01,2013-01-30 02:54:00,
2013-01-29 19:00:00,49.5,47.6,30.31,SSW,199,2.0,5.0,93,0.00,,FEW,0.18,VWS V14.01,2013-01-30 03:00:00,
2013-01-29 19:05:00,49.6,47.4,30.31,SSW,196,0.0,3.0,92,0.00,,FEW,0.18,VWS V14.01,2013-01-30 03:05:00,
2013-01-29 19:10:00,49.6,47.4,30.31,SSW,196,0.0,3.0,92,0.00,,FEW,0.18,VWS V14.01,2013-01-30 03:10:00,
2013-01-29 19:15:00,49.5,47.3,30.30,SSW,196,0.0,3.0,92,0.00,,FEW,0.18,VWS V14.01,2013-01-30 03:15:00,
2013-01-29 19:20:00,49.5,47.3,30.30,South,189,3.0,4.0,92,0.00,,FEW,0.18,VWS V14.01,2013-01-30 03:20:00,
2013-01-29 19:25:00,49.6,47.4,30.30,SSW,197,4.0,5.0,92,0.00,,FEW,0.18,VWS V14.01,2013-01-30 03:25:00,
2013-01-29 19:30:00,49.6,47.4,30.30,SSW,194,1.0,5.0,92,0.00,,FEW,0.18,VWS V14.01,2013-01-30 03:30:00,
2013-01-29 19:35:00,49.8,47.3,30.30,South,185,2.0,5.0,91,0.00,,FEW,0.18,VWS V14.01,2013-01-30 03:35:00,
2013-01-29 19:40:00,49.9,47.4,30.30,South,184,4.0,6.0,91,0.00,,FEW,0.18,VWS V14.01,2013-01-30 03:40:00,
2013-01-29 19:45:00,50.1,47.0,30.30,South,185,3.0,9.0,89,0.00,,FEW,0.18,VWS V14.01,2013-01-30 03:45:00,
2013-01-29 19:50:00,50.1,47.0,30.30,South,189,4.0,9.0,89,0.00,,FEW,0.18,VWS V14.01,2013-01-30 03:50:00,
2013-01-29 19:55:00,50.1,47.0,30.30,South,189,5.0,9.0,89,0.00,,FEW,0.18,VWS V14.01,2013-01-30 03:55:00,
2013-01-29 20:00:00,50.2,47.1,30.30,South,185,4.0,9.0,89,0.00,,FEW,0.18,VWS V14.01,2013-01-30 04:00:00,
2013-01-29 20:05:00,50.2,47.1,30.30,South,191,0.0,5.0,89,0.00,,FEW,0.18,VWS V14.01,2013-01-30 04:05:00,
2013-01-29 20:10:00,49.9,47.1,30.30,South,187,3.0,6.0,90,0.00,,FEW,0.18,VWS V14.01,2013-01-30 04:10:00,
2013-01-29 20:15:00,49.8,47.0,30.29,South,184,3.0,6.0,90,0.00,,FEW,0.18,VWS V14.01,2013-01-30 04:15:00,
2013-01-29 20:20:00,49.8,47.3,30.29,South,175,0.0,6.0,91,0.00,,FEW,0.18,VWS V14.01,2013-01-30 04:20:00,
2013-01-29 20:25:00,49.9,47.4,30.29,South,187,0.0,6.0,91,0.00,,FEW,0.18,VWS V14.01,2013-01-30 04:25:00,
2013-01-29 20:30:00,49.8,47.3,30.30,SSW,198,4.0,4.0,91,0.00,,FEW,0.18,VWS V14.01,2013-01-30 04:30:00,
2013-01-29 20:35:00,49.8,47.3,30.30,SSW,198,4.0,6.0,91,0.00,,FEW,0.18,VWS V14.01,2013-01-30 04:35:00,
2013-01-29 20:40:00,49.6,47.4,30.30,SSW,205,1.0,7.0,92,0.00,,FEW,0.18,VWS V14.01,2013-01-30 04:40:00,
2013-01-29 20:45:00,49.6,47.1,30.31,SSW,201,2.0,7.0,91,0.01,,FEW,0.19,VWS V14.01,2013-01-30 04:45:00,
2013-01-29 20:50:00,49.6,47.1,30.31,WSW,245,2.0,7.0,91,0.01,,FEW,0.19,VWS V14.01,2013-01-30 04:50:00,
2013-01-29 20:55:00,49.6,47.1,30.31,SSW,201,0.0,7.0,91,0.01,,FEW,0.19,VWS V14.01,2013-01-30 04:55:00,
2013-01-29 21:00:00,49.5,46.7,30.31,SSW,193,2.0,7.0,90,0.01,,FEW,0.19,VWS V14.01,2013-01-30 05:00:00,
2013-01-29 21:03:00,49.4,46.9,30.31,SSW,197,2.0,4.0,91,0.01,,FEW,0.19,VWS V14.01,2013-01-30 05:03:00,
2013-01-29 21:08:00,49.4,46.9,30.31,South,187,7.0,12.0,91,0.02,,FEW,0.20,VWS V14.01,2013-01-30 05:08:00,
2013-01-29 21:13:00,47.1,44.6,30.31,SSW,195,5.0,12.0,91,0.02,,FEW,0.20,VWS V14.01,2013-01-30 05:13:00,
2013-01-29 21:18:00,46.5,44.3,30.31,SSW,207,4.0,12.0,92,0.03,,FEW,0.21,VWS V14.01,2013-01-30 05:18:00,
2013-01-29 21:23:00,45.4,43.2,30.31,SSW,193,3.0,12.0,92,0.04,,FEW,0.22,VWS V14.01,2013-01-30 05:23:00,
2013-01-29 21:28:00,45.2,43.0,30.31,SSW,195,3.0,12.0,92,0.04,,FEW,0.22,VWS V14.01,2013-01-30 05:28:00,
2013-01-29 21:33:00,44.9,43.0,30.30,South,186,3.0,5.0,93,0.05,,FEW,0.23,VWS V14.01,2013-01-30 05:33:00,
2013-01-29 21:39:00,44.5,42.6,30.30,South,177,3.0,6.0,93,0.06,,FEW,0.24,VWS V14.01,2013-01-30 05:39:00,
2013-01-29 21:44:00,44.5,42.6,30.30,SE,131,3.0,6.0,93,0.06,,FEW,0.24,VWS V14.01,2013-01-30 05:44:00,
2013-01-29 21:49:00,44.9,43.3,30.29,SSE,160,0.0,6.0,94,0.06,,FEW,0.24,VWS V14.01,2013-01-30 05:49:00,
2013-01-29 21:54:00,45.2,43.6,30.29,SSE,162,0.0,6.0,94,0.06,,FEW,0.24,VWS V14.01,2013-01-30 05:54:00,
2013-01-29 21:59:00,45.4,43.8,30.29,SSW,201,0.0,6.0,94,0.06,,FEW,0.24,VWS V14.01,2013-01-30 05:59:00,
2013-01-29 22:04:00,45.5,43.9,30.29,SSW,205,2.0,2.0,94,0.05,,FEW,0.24,VWS V14.01,2013-01-30 06:04:00,
2013-01-29 22:09:00,45.7,44.1,30.29,South,187,0.0,5.0,94,0.05,,FEW,0.24,VWS V14.01,2013-01-30 06:09:00,
2013-01-29 22:14:00,45.7,44.1,30.29,WSW,254,1.0,5.0,94,0.05,,FEW,0.24,VWS V14.01,2013-01-30 06:14:00,
2013-01-29 22:19:00,45.8,44.2,30.29,SSW,193,3.0,5.0,94,0.05,,FEW,0.24,VWS V14.01,2013-01-30 06:19:00,
2013-01-29 22:24:00,46.0,44.4,30.29,SSW,210,3.0,5.0,94,0.05,,FEW,0.24,VWS V14.01,2013-01-30 06:24:00,
2013-01-29 22:29:00,46.1,44.5,30.29,South,182,0.0,5.0,94,0.05,,FEW,0.24,VWS V14.01,2013-01-30 06:29:00,
2013-01-29 22:34:00,46.1,44.5,30.28,South,191,0.0,2.0,94,0.01,,FEW,0.24,VWS V14.01,2013-01-30 06:34:00,
2013-01-29 22:39:00,46.1,44.5,30.28,SW,223,0.0,3.0,94,0.01,,FEW,0.24,VWS V14.01,2013-01-30 06:39:00,
2013-01-29 22:44:00,46.2,44.6,30.28,SW,223,0.0,3.0,94,0.01,,FEW,0.24,VWS V14.01,2013-01-30 06:44:00,
2013-01-29 22:49:00,46.2,44.6,30.29,SW,223,0.0,3.0,94,0.01,,FEW,0.24,VWS V14.01,2013-01-30 06:49:00,
2013-01-29 22:54:00,46.2,44.6,30.29,SW,223,0.0,3.0,94,0.02,,FEW,0.25,VWS V14.01,2013-01-30 06:54:00,
2013-01-29 22:59:00,46.2,44.6,30.29,SW,223,0.0,3.0,94,0.02,,FEW,0.25,VWS V14.01,2013-01-30 06:59:00,
2013-01-29 23:04:00,46.2,44.6,30.28,SW,223,0.0,0.0,94,0.01,,FEW,0.25,VWS V14.01,2013-01-30 07:04:00,
2013-01-29 23:09:00,46.2,44.6,30.28,SW,223,0.0,1.0,94,0.01,,FEW,0.25,VWS V14.01,2013-01-30 07:09:00,
2013-01-29 23:14:00,46.2,44.6,30.28,SSW,213,0.0,2.0,94,0.01,,FEW,0.25,VWS V14.01,2013-01-30 07:14:00,
2013-01-29 23:19:00,46.2,44.6,30.28,West,262,0.0,2.0,94,0.01,,FEW,0.25,VWS V14.01,2013-01-30 07:19:00,
2013-01-29 23:24:00,46.4,44.8,30.28,SSW,199,1.0,2.0,94,0.02,,FEW,0.26,VWS V14.01,2013-01-30 07:24:00,
2013-01-29 23:29:00,46.4,44.8,30.27,SSW,212,0.0,2.0,94,0.02,,FEW,0.26,VWS V14.01,2013-01-30 07:29:00,
2013-01-29 23:34:00,46.1,44.5,30.27,West,259,0.0,4.0,94,0.03,,FEW,0.27,VWS V14.01,2013-01-30 07:34:00,
2013-01-29 23:39:00,46.2,44.6,30.27,South,188,1.0,4.0,94,0.03,,FEW,0.27,VWS V14.01,2013-01-30 07:39:00,
2013-01-29 23:44:00,46.2,44.6,30.29,SSW,197,0.0,4.0,94,0.03,,FEW,0.27,VWS V14.01,2013-01-30 07:44:00,
2013-01-29 23:49:00,46.2,44.6,30.29,SSW,197,0.0,4.0,94,0.03,,FEW,0.27,VWS V14.01,2013-01-30 07:49:00,
2013-01-29 23:54:00,46.2,44.6,30.29,SSW,197,0.0,4.0,94,0.03,,FEW,0.27,VWS V14.01,2013-01-30 07:54:00,
2013-01-29 23:59:00,46.1,44.5,30.28,SSW,197,0.0,4.0,94,0.04,,FEW,0.28,VWS V14.01,2013-01-30 07:59:00,